aviador You're here:

SBFL Decoded Metar

FLORIANOPOLIS in BRAZIL
Report Time2017-09-26 00:00:00
UTC Time2017-09-26 00:05:02
Flight Rules vfr VFR
Wind010° at 06 kt
W.Decomp.*RWY 03: 6.0 kt HW 0.1 kt LCW
RWY 32: 2.2 kt HW 5.6 kt RCW
W.Rank010° ranks 5
Current wind is below 010° avg. (8.5)
Visibility9999 m
Phenomena:N/A
Clouds:Few 011 Hf
Expected CloudBase > 800 ft AGL from Temp-Dew spread
CeilingNone
Temp20°C (ISA +5)
Dew Point18°C (88% RH)
QNH1022 hPa
Density Alt574 ft
Elevation16 ft
Report Wrong Elevation
Raw Report
METAR SBFL 260000Z 01006KT 9999 FEW011 20/18 Q1022=

Extra information for SBFL:More info

Metar Taf Metar & Taf Last 4 Metars F.Rules Stats Wind Profile Meteogram Temp Stats Airport Information Weather charts Add Link Nearby VenuesMetar ALERT Operation Metar Decoded Social comments